createdAt,value
2018-06-21T05:01:53.415Z,95275.63
2018-06-21T05:06:56.752Z,95267.34
2018-06-21T05:12:00.089Z,95264.84
2018-06-21T05:17:03.421Z,95268.54
2018-06-21T05:22:06.770Z,95276.27
2018-06-21T05:27:10.106Z,95277.95
2018-06-21T05:32:13.435Z,95271.62
2018-06-21T05:37:16.775Z,95277.11
2018-06-21T05:42:20.106Z,95274.17
2018-06-21T05:47:23.438Z,95272.06
2018-06-21T05:52:26.779Z,95274.53
2018-06-21T05:57:30.101Z,95271.70
2018-06-21T06:02:33.434Z,95278.50
2018-06-21T06:07:37.527Z,95268.10
2018-06-21T06:12:40.870Z,95270.98
2018-06-21T06:17:44.968Z,95265.80
2018-06-21T06:22:48.335Z,95262.13
2018-06-21T06:27:51.666Z,95265.75
2018-06-21T06:32:54.994Z,95252.84
2018-06-21T06:37:58.322Z,95249.56
2018-06-21T06:43:01.660Z,95244.48
2018-06-21T06:48:05.774Z,95249.48
2018-06-21T06:53:09.107Z,95247.39
2018-06-21T06:58:12.435Z,95252.23
2018-06-21T07:03:15.770Z,95237.39
2018-06-21T07:08:19.110Z,95241.26
2018-06-21T07:13:22.715Z,95235.15
2018-06-21T07:18:26.075Z,95235.05
2018-06-21T07:23:30.182Z,95233.23
2018-06-21T07:28:33.594Z,95229.67
2018-06-21T07:33:37.116Z,95224.27
2018-06-21T07:38:40.459Z,95225.16
2018-06-21T07:43:43.816Z,95218.75
2018-06-21T07:48:47.164Z,95219.96
2018-06-21T07:53:51.581Z,95212.88
2018-06-21T07:58:54.936Z,95219.37
2018-06-21T08:03:58.279Z,95213.31
2018-06-21T08:09:01.607Z,95198.39
2018-06-21T08:14:04.942Z,95191.92
2018-06-21T08:19:08.274Z,95192.39
2018-06-21T08:24:12.362Z,95188.98
2018-06-21T08:29:15.702Z,95194.39
2018-06-21T08:34:19.050Z,95196.08
2018-06-21T08:39:22.370Z,95193.53
2018-06-21T08:44:25.698Z,95183.56
2018-06-21T08:49:29.027Z,95186.83
2018-06-21T08:54:32.368Z,95183.39
2018-06-21T08:59:35.718Z,95190.62
2018-06-21T09:04:39.068Z,95187.16
2018-06-21T09:09:42.393Z,95181.55
2018-06-21T09:14:45.726Z,95182.11
2018-06-21T09:19:49.831Z,95180.15
2018-06-21T09:24:53.168Z,95174.85
2018-06-21T09:29:56.494Z,95167.27
2018-06-21T09:35:00.671Z,95184.04
2018-06-21T09:45:33.866Z,95175.50
2018-06-21T09:50:37.966Z,95182.13
2018-06-21T09:55:41.293Z,95176.41
2018-06-21T10:00:44.626Z,95188.48
2018-06-21T10:05:48.711Z,95181.91
2018-06-21T10:10:52.057Z,95177.27
2018-06-21T10:15:56.146Z,95172.36
2018-06-21T10:20:59.489Z,95175.91
2018-06-21T10:26:02.819Z,95155.27
2018-06-21T10:31:06.917Z,95144.92
2018-06-21T10:36:10.238Z,95141.21
2018-06-21T10:41:13.561Z,95132.24
2018-06-21T10:46:16.994Z,95141.94
2018-06-21T10:51:21.102Z,95131.56
2018-06-21T10:56:24.442Z,95124.26
2018-06-21T11:01:28.533Z,95122.22
2018-06-21T11:06:31.865Z,95104.59
2018-06-21T11:11:35.183Z,95112.16
2018-06-21T11:16:39.270Z,95096.41
2018-06-21T11:21:42.604Z,95117.34
2018-06-21T11:26:45.947Z,95088.08
2018-06-21T11:31:50.031Z,95095.73
2018-06-21T11:36:53.361Z,95076.50
2018-06-21T11:41:56.690Z,95076.33
2018-06-21T11:47:00.783Z,95051.25
2018-06-21T11:52:04.123Z,95067.94
2018-06-21T11:57:07.457Z,95092.23
2018-06-21T12:02:10.815Z,95076.56
2018-06-21T12:07:14.143Z,95099.95
2018-06-21T12:12:17.480Z,95105.06
2018-06-21T12:17:21.575Z,95123.86
2018-06-21T12:22:24.919Z,95115.13
2018-06-21T12:27:28.251Z,95108.19
2018-06-21T12:32:32.360Z,95090.47
2018-06-21T12:37:35.694Z,95095.14
2018-06-21T12:42:39.780Z,95088.25
2018-06-21T12:47:43.131Z,95075.55
2018-06-21T12:52:47.228Z,95061.25
2018-06-21T12:57:50.558Z,95053.30
2018-06-21T13:02:53.895Z,95067.59
2018-06-21T13:07:57.990Z,95053.48
2018-06-21T13:13:16.967Z,95069.46
2018-06-21T13:18:20.307Z,95034.69
2018-06-21T13:23:24.397Z,95051.16
2018-06-21T13:28:27.718Z,95057.02
2018-06-21T13:33:31.047Z,95123.23
2018-06-21T13:38:34.379Z,95097.47
2018-06-21T13:43:38.470Z,95090.86
2018-06-21T13:48:41.787Z,95066.86
2018-06-21T13:53:45.112Z,95070.03
2018-06-21T13:58:48.441Z,95067.85
2018-06-21T14:03:52.539Z,95060.35
2018-06-21T14:08:55.879Z,95049.50
2018-06-21T14:13:59.977Z,95045.73
2018-06-21T14:19:03.306Z,95047.01
2018-06-21T14:24:06.719Z,95042.47
2018-06-21T14:29:10.063Z,95037.04
2018-06-21T14:34:13.395Z,95057.20
2018-06-21T14:39:16.727Z,95061.90
2018-06-21T14:44:20.064Z,95066.53
2018-06-21T14:49:23.398Z,95048.59
2018-06-21T14:54:27.487Z,95070.44
2018-06-21T14:59:30.817Z,95082.03
2018-06-21T15:04:34.154Z,95086.63
2018-06-21T15:09:37.475Z,95073.42
2018-06-21T15:14:41.575Z,95091.03
2018-06-21T15:19:44.905Z,95113.16
2018-06-21T15:24:48.239Z,95096.99
2018-06-21T15:29:52.335Z,95087.12
2018-06-21T15:34:55.662Z,95097.88
2018-06-21T15:39:59.051Z,95086.88
2018-06-21T15:45:02.357Z,95100.02
2018-06-21T15:50:05.682Z,95122.99
2018-06-21T15:55:09.011Z,95103.62
2018-06-21T16:00:12.338Z,95100.53
2018-06-21T16:05:16.447Z,95099.28
2018-06-21T16:10:20.463Z,95115.63
2018-06-21T16:15:23.798Z,95105.95
2018-06-21T16:20:28.830Z,95129.29
2018-06-21T16:25:32.164Z,95111.39
2018-06-21T16:30:35.501Z,95112.56
2018-06-21T16:35:38.834Z,95114.30
2018-06-21T16:40:42.164Z,95125.44
2018-06-21T16:45:45.495Z,95136.00
2018-06-21T16:50:48.825Z,95128.39
2018-06-21T16:55:52.166Z,95117.89
2018-06-21T17:00:55.503Z,95134.52
2018-06-21T17:05:58.844Z,95131.94
2018-06-21T17:11:02.189Z,95131.46
2018-06-21T17:16:06.283Z,95117.55
2018-06-21T17:21:09.603Z,95122.86
2018-06-21T17:26:12.948Z,95128.55
2018-06-21T17:31:17.347Z,95130.09
2018-06-21T17:36:20.684Z,95135.95
2018-06-21T17:41:24.032Z,95135.61
2018-06-21T17:46:28.129Z,95138.86
2018-06-21T17:51:31.480Z,95137.30
2018-06-21T17:56:35.752Z,95150.53
2018-06-21T18:01:39.107Z,95149.07
2018-06-21T18:06:43.507Z,95156.55
2018-06-21T18:11:46.868Z,95151.10
2018-06-21T18:16:50.218Z,95164.43
2018-06-21T18:21:53.572Z,95177.30
2018-06-21T18:26:57.059Z,95184.91
2018-06-21T18:32:00.426Z,95197.41
2018-06-21T18:37:04.559Z,95221.77
2018-06-21T18:42:07.898Z,95223.34
2018-06-21T18:47:11.463Z,95231.68
2018-06-21T18:52:14.810Z,95237.09
2018-06-21T18:57:18.443Z,95241.74
2018-06-21T19:02:21.783Z,95256.52
2018-06-21T19:07:32.719Z,95271.17
2018-06-21T19:12:36.852Z,95279.07
2018-06-21T19:17:40.962Z,95283.59
2018-06-21T19:22:44.303Z,95308.11
2018-06-21T19:27:47.811Z,95317.95
2018-06-21T19:32:51.898Z,95319.75
2018-06-21T19:37:55.242Z,95321.59
2018-06-21T19:42:58.679Z,95335.03
2018-06-21T19:48:02.133Z,95344.17
2018-06-21T19:53:05.646Z,95349.84
2018-06-21T19:58:08.975Z,95373.87
2018-06-21T20:03:12.337Z,95365.96
2018-06-21T20:08:16.434Z,95366.35
2018-06-21T20:13:19.771Z,95367.08
2018-06-21T20:18:23.900Z,95372.39
2018-06-21T20:23:27.362Z,95375.63
2018-06-21T20:28:30.682Z,95372.17
2018-06-21T20:33:34.016Z,95366.48
2018-06-21T20:38:37.344Z,95369.34
2018-06-21T20:43:40.814Z,95366.76
2018-06-21T20:48:44.147Z,95378.50
2018-06-21T20:53:47.479Z,95382.56
2018-06-21T20:58:50.806Z,95396.31
2018-06-21T21:03:54.910Z,95382.89
2018-06-21T21:08:58.247Z,95403.85
2018-06-21T21:14:02.335Z,95398.90
2018-06-21T21:19:05.700Z,95398.43
2018-06-21T21:24:09.027Z,95425.65
2018-06-21T21:29:12.362Z,95425.95
2018-06-21T21:34:15.696Z,95423.30
2018-06-21T21:39:19.047Z,95418.05
2018-06-21T21:44:23.153Z,95430.34
2018-06-21T21:49:26.634Z,95442.87
2018-06-21T21:54:29.975Z,95442.95
2018-06-21T21:59:33.587Z,95453.34
2018-06-21T22:04:36.964Z,95472.31
2018-06-21T22:09:40.298Z,95475.60
2018-06-21T22:14:43.811Z,95481.12
2018-06-21T22:19:47.143Z,95496.93
2018-06-21T22:24:50.585Z,95507.05
2018-06-21T22:29:54.686Z,95516.47
